Time;durP1;ratioP1;P1;durP2;ratioP2;P2;SDS_P1;SDS_P2;PMS_P1;PMS_P2;Temp;Humidity;BMP_temperature;BMP_pressure;BME280_temperature;BME280_humidity;BME280_pressure;Samples;Min_cycle;Max_cycle;Signal;HPM_P1;HPM_P2
2022/03/08 00:02:21;;;;;;;15.73;8.13;;;0.00;99.90;;;;;;6147286;23;20016;-86
2022/03/08 00:04:47;;;;;;;13.45;6.68;;;0.00;99.90;;;;;;6174749;23;20017;-86
2022/03/08 00:07:13;;;;;;;14.15;7.40;;;-0.10;99.90;;;;;;6149580;23;20370;-86
2022/03/08 00:09:39;;;;;;;12.50;7.45;;;-0.10;99.90;;;;;;6149052;23;20283;-86
2022/03/08 00:12:07;;;;;;;19.13;8.43;;;-0.20;99.90;;;;;;6149661;23;20024;-86
2022/03/08 00:14:34;;;;;;;13.60;6.93;;;-0.20;99.90;;;;;;6173069;23;20064;-86
2022/03/08 00:17:00;;;;;;;11.90;6.35;;;-0.30;99.90;;;;;;6147754;23;20009;-86
2022/03/08 00:19:26;;;;;;;14.52;6.55;;;-0.20;99.90;;;;;;6149485;23;20024;-85
2022/03/08 00:21:52;;;;;;;13.70;6.75;;;-0.30;99.90;;;;;;6122503;23;20354;-86
2022/03/08 00:24:18;;;;;;;15.38;7.78;;;-0.20;99.90;;;;;;6173969;23;20060;-86
2022/03/08 00:26:45;;;;;;;14.35;7.07;;;-0.30;99.90;;;;;;6148855;23;20052;-86
2022/03/08 00:29:10;;;;;;;12.95;7.15;;;-0.20;99.90;;;;;;6149334;23;20021;-86
2022/03/08 00:31:37;;;;;;;13.90;7.35;;;-0.30;99.90;;;;;;6147935;23;20232;-86
2022/03/08 00:34:04;;;;;;;15.25;7.45;;;-0.30;99.90;;;;;;6173452;23;20106;-86
2022/03/08 00:36:30;;;;;;;16.13;7.40;;;-0.30;99.90;;;;;;6148212;23;20048;-86
2022/03/08 00:38:56;;;;;;;13.38;6.80;;;-0.30;99.90;;;;;;6176019;23;20013;-86
2022/03/08 00:41:22;;;;;;;12.50;7.13;;;-0.40;99.90;;;;;;6175566;23;20340;-85
2022/03/08 00:43:49;;;;;;;12.40;7.15;;;-0.30;99.90;;;;;;6176778;23;20020;-87
2022/03/08 00:46:18;;;;;;;12.82;6.80;;;-0.30;99.90;;;;;;6150486;23;20060;-87
2022/03/08 00:48:44;;;;;;;14.80;7.15;;;-0.40;99.90;;;;;;6151059;23;20017;-87
2022/03/08 00:51:11;;;;;;;14.95;6.90;;;-0.40;99.90;;;;;;6150056;23;20013;-87
2022/03/08 00:53:38;;;;;;;13.85;7.50;;;-0.40;99.90;;;;;;6151103;23;20075;-87
2022/03/08 00:56:04;;;;;;;13.75;7.22;;;-0.40;99.90;;;;;;6152425;23;20462;-87
2022/03/08 00:58:30;;;;;;;13.02;6.97;;;-0.40;99.90;;;;;;6175247;23;20024;-87
2022/03/08 01:00:56;;;;;;;13.60;7.10;;;-0.40;99.90;;;;;;6151278;23;20016;-87
2022/03/08 01:03:21;;;;;;;16.50;7.75;;;-0.40;99.90;;;;;;6152276;23;20013;-87
2022/03/08 01:05:47;;;;;;;17.08;7.93;;;-0.40;99.90;;;;;;6153149;23;20020;-87
2022/03/08 01:08:14;;;;;;;17.02;8.23;;;-0.50;99.90;;;;;;6150281;23;20026;-88
2022/03/08 01:10:41;;;;;;;14.18;7.78;;;-0.60;99.90;;;;;;6151905;23;20017;-86
2022/03/08 01:13:06;;;;;;;17.35;8.23;;;-0.50;99.90;;;;;;6176781;23;20021;-87
2022/03/08 01:15:33;;;;;;;18.55;8.20;;;-0.60;99.90;;;;;;6153577;23;20016;-87
2022/03/08 01:17:59;;;;;;;16.90;8.32;;;-0.60;99.90;;;;;;6153718;23;20075;-87
2022/03/08 01:20:26;;;;;;;16.23;8.50;;;-0.60;99.90;;;;;;6176992;23;20013;-87
2022/03/08 01:22:51;;;;;;;15.77;7.90;;;-0.50;99.90;;;;;;6175986;23;20017;-88
2022/03/08 01:25:20;;;;;;;16.65;7.82;;;-0.50;99.90;;;;;;6177692;23;20068;-87
2022/03/08 01:27:50;;;;;;;16.88;8.88;;;-0.50;99.90;;;;;;6151321;23;20047;-88
2022/03/08 01:30:18;;;;;;;15.85;8.65;;;-0.50;99.90;;;;;;6152319;23;20021;-87
2022/03/08 01:32:44;;;;;;;14.23;9.05;;;-0.50;99.90;;;;;;6175476;23;20013;-87
2022/03/08 01:35:10;;;;;;;14.85;8.45;;;-0.60;99.90;;;;;;6151493;23;20382;-87
2022/03/08 01:37:37;;;;;;;14.63;8.43;;;-0.60;99.90;;;;;;6174027;23;20087;-88
2022/03/08 01:40:05;;;;;;;16.42;8.48;;;-0.60;99.90;;;;;;6172891;23;20020;-87
2022/03/08 01:42:31;;;;;;;15.43;7.68;;;-0.70;99.90;;;;;;6172066;23;20231;-87
2022/03/08 01:44:56;;;;;;;14.30;8.25;;;-0.70;99.90;;;;;;6148203;23;20017;-88
2022/03/08 01:47:24;;;;;;;19.42;8.07;;;-0.70;99.90;;;;;;6147778;23;20017;-88
2022/03/08 01:49:51;;;;;;;18.95;8.20;;;-0.80;99.90;;;;;;6147556;23;20401;-88
2022/03/08 01:52:20;;;;;;;14.77;8.13;;;-0.70;99.90;;;;;;6151562;23;20350;-87
2022/03/08 01:54:45;;;;;;;16.55;8.38;;;-0.80;99.90;;;;;;6147038;23;20275;-88
2022/03/08 01:57:13;;;;;;;15.20;8.20;;;-0.80;99.90;;;;;;6172503;23;20020;-88
2022/03/08 01:59:39;;;;;;;14.88;8.10;;;-0.80;99.90;;;;;;6173772;23;20516;-88
2022/03/08 02:02:05;;;;;;;14.75;8.55;;;-1.00;99.90;;;;;;6148935;23;20017;-87
2022/03/08 02:04:31;;;;;;;15.25;8.10;;;;;;;;;;6148959;23;20150;-88
2022/03/08 02:06:58;;;;;;;14.55;8.02;;;;;;;;;;6173882;23;20017;-88
2022/03/08 02:09:24;;;;;;;13.20;7.72;;;;;;;;;;6174483;23;20064;-87
2022/03/08 02:11:50;;;;;;;15.25;7.65;;;;;;;;;;6148186;23;20013;-87
2022/03/08 02:14:16;;;;;;;13.48;7.80;;;;;;;;;;6150018;23;20052;-88
2022/03/08 02:16:42;;;;;;;20.88;7.95;;;;;;;;;;6175211;23;20075;-87
2022/03/08 02:19:13;;;;;;;18.67;8.95;;;;;;;;;;6176012;23;20450;-88
2022/03/08 02:21:39;;;;;;;15.23;8.63;;;;;;;;;;6175065;23;20024;-88
2022/03/08 02:24:05;;;;;;;17.02;9.18;;;;;;;;;;6149787;23;20251;-88
2022/03/08 02:26:32;;;;;;;19.33;8.88;;;;;;;;;;6151675;23;20144;-88
2022/03/08 02:29:03;;;;;;;13.88;7.95;;;;;;;;;;6152021;23;20367;-89
2022/03/08 02:31:29;;;;;;;13.07;7.90;;;;;;;;;;6175004;23;20063;-88
2022/03/08 02:33:55;;;;;;;13.43;8.07;;;;;;;;;;6148826;23;20358;-88
2022/03/08 02:36:21;;;;;;;15.00;8.15;;;;;;;;;;6175289;23;20048;-88
2022/03/08 02:38:47;;;;;;;20.48;9.02;;;;;;;;;;6174798;23;20020;-88
2022/03/08 02:41:14;;;;;;;17.10;8.40;;;;;;;;;;6149900;23;20052;-88
2022/03/08 02:43:40;;;;;;;17.75;9.18;;;;;;;;;;6174677;23;20024;-89
2022/03/08 02:46:06;;;;;;;15.57;8.35;;;;;;;;;;6150440;23;20025;-88
2022/03/08 02:48:32;;;;;;;23.67;9.88;;;;;;;;;;6174644;23;20013;-88
2022/03/08 02:50:59;;;;;;;18.40;9.38;;;;;;;;;;6150233;23;20016;-88
2022/03/08 02:53:25;;;;;;;17.02;8.93;;;;;;;;;;6174834;23;20096;-88
2022/03/08 02:55:51;;;;;;;22.70;9.15;;;;;;;;;;6150776;23;20497;-88
2022/03/08 02:58:17;;;;;;;17.70;9.27;;;;;;;;;;6150158;23;20031;-88
2022/03/08 03:00:43;;;;;;;18.60;8.65;;;;;;;;;;6150977;23;20017;-88
2022/03/08 03:03:10;;;;;;;17.00;8.77;;;;;;;;;;6175974;23;20036;-88
2022/03/08 03:05:36;;;;;;;16.70;9.45;;;;;;;;;;6180528;23;20159;-88
2022/03/08 03:08:03;;;;;;;17.08;8.48;;;;;;;;;;6177344;23;20456;-88
2022/03/08 03:10:30;;;;;;;18.13;8.55;;;;;;;;;;6174340;23;20074;-87
2022/03/08 03:12:57;;;;;;;20.25;9.75;;;;;;;;;;6151561;23;20013;-89
2022/03/08 03:15:24;;;;;;;20.98;9.77;;;;;;;;;;6150384;23;20021;-88
2022/03/08 03:17:50;;;;;;;25.23;10.02;;;;;;;;;;6150035;23;20398;-88
2022/03/08 03:20:18;;;;;;;20.95;9.88;;;;;;;;;;6174559;23;20040;-88
2022/03/08 03:22:44;;;;;;;19.13;9.50;;;;;;;;;;6172879;23;20017;-88
2022/03/08 03:25:11;;;;;;;19.95;10.23;;;;;;;;;;6150403;23;20021;-88
2022/03/08 03:27:37;;;;;;;18.70;9.23;;;;;;;;;;6149185;23;20450;-88
2022/03/08 03:30:06;;;;;;;19.05;9.50;;;-0.90;99.90;;;;;;6174949;23;20159;-88
2022/03/08 03:32:32;;;;;;;19.98;9.55;;;-1.30;99.90;;;;;;6173973;23;20009;-88
2022/03/08 03:34:58;;;;;;;21.27;9.82;;;-1.30;99.90;;;;;;6149636;23;20013;-89
2022/03/08 03:37:24;;;;;;;17.20;9.27;;;-1.30;99.90;;;;;;6175432;23;20017;-89
2022/03/08 03:39:50;;;;;;;18.70;9.80;;;-1.40;99.90;;;;;;6151028;23;20017;-88
2022/03/08 03:42:16;;;;;;;19.80;9.98;;;-1.40;99.90;;;;;;6151387;23;20016;-89
2022/03/08 03:44:42;;;;;;;19.75;10.13;;;-1.40;99.90;;;;;;6106149;23;20023;-88
2022/03/08 03:47:08;;;;;;;18.00;9.65;;;-1.40;99.90;;;;;;6153256;23;20023;-88
2022/03/08 03:49:34;;;;;;;19.33;10.20;;;-1.40;99.90;;;;;;6105284;23;20350;-88
2022/03/08 03:52:00;;;;;;;19.35;9.50;;;-1.20;99.90;;;;;;6153966;23;20446;-88
2022/03/08 03:54:26;;;;;;;21.80;9.88;;;-1.30;99.90;;;;;;6129789;23;20021;-89
2022/03/08 03:56:51;;;;;;;17.25;9.10;;;-1.30;99.90;;;;;;6105139;23;20346;-88
2022/03/08 03:59:17;;;;;;;22.27;10.75;;;-1.20;99.90;;;;;;6130269;23;20020;-88
2022/03/08 04:01:43;;;;;;;21.05;10.68;;;-1.30;99.90;;;;;;6103982;23;20031;-88
2022/03/08 04:04:09;;;;;;;19.88;10.43;;;-1.30;99.90;;;;;;6105426;23;20059;-89
2022/03/08 04:06:35;;;;;;;24.17;11.25;;;-1.30;99.90;;;;;;6106477;23;20074;-89
2022/03/08 04:09:03;;;;;;;21.90;10.40;;;-1.30;99.90;;;;;;6106809;23;20103;-89
2022/03/08 04:11:29;;;;;;;19.70;10.40;;;-1.40;99.90;;;;;;6131098;23;20042;-89
2022/03/08 04:13:55;;;;;;;18.63;9.48;;;-1.30;99.90;;;;;;6154916;23;20017;-89
2022/03/08 04:16:20;;;;;;;21.17;10.57;;;-1.30;99.90;;;;;;6107664;23;20425;-89
2022/03/08 04:18:46;;;;;;;21.88;10.77;;;-1.40;99.90;;;;;;6154189;23;20012;-88
2022/03/08 04:21:12;;;;;;;21.00;10.70;;;-1.40;99.90;;;;;;6103924;23;20013;-88
2022/03/08 04:23:38;;;;;;;22.33;11.05;;;-1.40;99.90;;;;;;6104243;23;20346;-88
2022/03/08 04:26:04;;;;;;;20.45;10.38;;;-1.40;99.90;;;;;;6154829;23;20349;-88
2022/03/08 04:28:30;;;;;;;23.13;11.35;;;-1.50;99.90;;;;;;6130190;23;20016;-88
2022/03/08 04:30:55;;;;;;;22.45;11.10;;;-1.40;99.90;;;;;;6130903;23;20401;-89
2022/03/08 04:33:21;;;;;;;21.60;10.52;;;-1.40;99.90;;;;;;6106313;23;20100;-88
2022/03/08 04:35:47;;;;;;;19.20;10.73;;;-1.40;99.90;;;;;;6153805;23;20103;-89
2022/03/08 04:38:13;;;;;;;22.58;11.63;;;-1.50;99.90;;;;;;6130021;23;20091;-88
2022/03/08 04:40:39;;;;;;;19.05;10.00;;;-1.50;99.90;;;;;;6131141;23;20102;-88
2022/03/08 04:43:05;;;;;;;18.92;10.45;;;-1.50;99.90;;;;;;6110106;23;20051;-89
2022/03/08 04:45:31;;;;;;;23.05;12.43;;;-1.40;99.90;;;;;;6108929;23;20032;-89
2022/03/08 04:47:57;;;;;;;22.67;11.52;;;-1.50;99.90;;;;;;6130864;23;20024;-89
2022/03/08 04:50:22;;;;;;;23.63;11.32;;;-1.40;99.90;;;;;;6107899;23;20016;-90
2022/03/08 04:52:49;;;;;;;25.25;12.38;;;-1.50;99.90;;;;;;6126541;23;20393;-88
2022/03/08 04:55:17;;;;;;;22.17;11.88;;;-1.40;99.90;;;;;;6100557;23;20021;-89
2022/03/08 04:57:43;;;;;;;22.38;12.00;;;-1.50;99.90;;;;;;6127577;23;20523;-88
2022/03/08 05:00:12;;;;;;;27.42;12.63;;;-1.50;99.90;;;;;;6128437;23;20092;-89
2022/03/08 05:02:42;;;;;;;22.60;12.10;;;-1.50;99.90;;;;;;6151906;23;20465;-88
2022/03/08 05:05:09;;;;;;;19.13;10.88;;;-1.50;99.90;;;;;;6152118;23;20222;-88
2022/03/08 05:07:36;;;;;;;26.50;12.05;;;-1.50;99.90;;;;;;6152795;23;20020;-88
2022/03/08 05:10:07;;;;;;;24.63;11.75;;;-1.50;99.90;;;;;;6127989;23;20468;-89
2022/03/08 05:12:34;;;;;;;23.83;12.18;;;-1.50;99.90;;;;;;6126871;23;20019;-89
2022/03/08 05:14:59;;;;;;;26.75;13.32;;;-1.60;99.90;;;;;;6151296;23;20059;-89
2022/03/08 05:17:25;;;;;;;29.10;13.32;;;-1.60;99.90;;;;;;6152036;23;20016;-88
2022/03/08 05:19:51;;;;;;;22.83;12.52;;;-1.50;99.90;;;;;;6147674;23;20013;-88
2022/03/08 05:22:18;;;;;;;25.05;13.18;;;-1.60;99.90;;;;;;6153992;23;20024;-88
2022/03/08 05:24:44;;;;;;;24.75;12.77;;;-1.60;99.90;;;;;;6128503;23;20074;-88
2022/03/08 05:27:10;;;;;;;27.88;13.43;;;-1.60;99.90;;;;;;6155265;23;20110;-88
2022/03/08 05:29:36;;;;;;;32.05;13.13;;;-1.60;99.90;;;;;;6135305;23;20020;-89
2022/03/08 05:32:02;;;;;;;27.25;13.60;;;-1.60;99.90;;;;;;6107140;23;20017;-88
2022/03/08 05:34:28;;;;;;;24.02;13.00;;;-1.50;99.90;;;;;;6134027;23;20025;-88
2022/03/08 05:36:55;;;;;;;27.13;13.23;;;-1.60;99.90;;;;;;6156883;23;20016;-88
2022/03/08 05:39:21;;;;;;;31.15;14.57;;;-1.60;99.90;;;;;;6131992;23;20012;-89
2022/03/08 05:41:48;;;;;;;30.35;13.73;;;-1.50;99.90;;;;;;6106153;23;20063;-88
2022/03/08 05:44:13;;;;;;;31.65;13.82;;;-1.60;99.90;;;;;;6129078;23;20361;-88
2022/03/08 05:46:39;;;;;;;28.50;13.88;;;-1.50;99.90;;;;;;6203392;23;20016;-89
2022/03/08 05:49:05;;;;;;;25.23;13.80;;;-1.50;99.90;;;;;;6154154;23;20357;-88
2022/03/08 05:51:31;;;;;;;30.65;14.82;;;-1.50;99.90;;;;;;6129803;23;20016;-89
2022/03/08 05:53:56;;;;;;;31.05;15.52;;;-1.50;99.90;;;;;;6130072;23;20016;-87
2022/03/08 05:56:22;;;;;;;43.92;18.95;;;-1.40;99.90;;;;;;6105569;23;20013;-88
2022/03/08 05:58:48;;;;;;;48.30;22.50;;;-1.50;99.90;;;;;;6129704;23;20009;-89
2022/03/08 06:01:14;;;;;;;35.88;18.77;;;-1.30;99.90;;;;;;6129496;23;20017;-88
2022/03/08 06:03:40;;;;;;;36.35;18.77;;;-1.40;99.90;;;;;;6130014;23;20019;-88
2022/03/08 06:06:06;;;;;;;32.95;17.33;;;-1.40;99.90;;;;;;6154741;23;20020;-88
2022/03/08 06:08:31;;;;;;;30.75;16.45;;;-1.40;99.90;;;;;;6105530;23;20016;-88
2022/03/08 06:10:57;;;;;;;30.05;15.63;;;-1.40;99.90;;;;;;6153406;23;20017;-88
2022/03/08 06:13:23;;;;;;;33.13;15.52;;;-1.30;99.90;;;;;;6130784;23;20062;-88
2022/03/08 06:15:49;;;;;;;26.98;14.93;;;-1.30;99.90;;;;;;6104622;23;20012;-87
2022/03/08 06:18:14;;;;;;;33.45;16.70;;;-1.30;99.90;;;;;;6129926;23;20018;-90
2022/03/08 06:20:41;;;;;;;25.85;14.25;;;-1.30;99.90;;;;;;6106806;23;20450;-88
2022/03/08 06:23:07;;;;;;;29.98;14.85;;;-1.20;99.90;;;;;;6106885;23;20032;-88
2022/03/08 06:25:33;;;;;;;28.55;14.55;;;-1.20;99.90;;;;;;6153910;23;20413;-88
2022/03/08 06:27:59;;;;;;;29.33;14.93;;;-1.20;99.90;;;;;;6154120;23;20047;-87
2022/03/08 06:30:25;;;;;;;36.85;17.13;;;-1.20;99.90;;;;;;6129261;23;20051;-88
2022/03/08 06:32:52;;;;;;;31.30;14.10;;;-1.20;99.90;;;;;;6127154;23;20458;-88
2022/03/08 06:35:19;;;;;;;31.95;16.20;;;-1.10;99.90;;;;;;6153054;23;20020;-88
2022/03/08 06:37:48;;;;;;;32.83;14.65;;;-1.00;99.90;;;;;;6129718;23;20024;-88
2022/03/08 06:40:14;;;;;;;32.20;15.63;;;-1.10;99.90;;;;;;6131489;23;20009;-88
2022/03/08 06:42:40;;;;;;;28.95;15.35;;;-1.00;99.90;;;;;;6128868;23;20120;-88
2022/03/08 06:45:06;;;;;;;40.95;15.98;;;-0.90;99.90;;;;;;6129652;23;20021;-88
2022/03/08 06:47:32;;;;;;;34.40;16.33;;;-1.00;99.90;;;;;;6155120;23;20082;-88
2022/03/08 06:49:59;;;;;;;29.90;15.00;;;-0.90;99.90;;;;;;6203559;23;20115;-88
2022/03/08 06:52:24;;;;;;;29.17;15.57;;;-0.90;99.90;;;;;;6179046;23;20458;-88
2022/03/08 06:54:50;;;;;;;29.60;14.52;;;-0.80;99.90;;;;;;6130665;23;20023;-88
2022/03/08 06:57:16;;;;;;;31.63;15.93;;;-0.80;99.90;;;;;;6129206;23;20009;-89
2022/03/08 06:59:42;;;;;;;30.85;15.43;;;-0.60;99.90;;;;;;6131498;23;20013;-88
2022/03/08 07:02:08;;;;;;;30.60;14.93;;;-0.70;99.90;;;;;;6131639;23;20027;-87
2022/03/08 07:04:34;;;;;;;28.45;15.77;;;-0.60;99.90;;;;;;6131674;23;20437;-87
2022/03/08 07:07:01;;;;;;;28.90;15.05;;;-0.60;99.90;;;;;;6156793;23;20016;-88
2022/03/08 07:09:27;;;;;;;29.13;16.20;;;-0.40;99.90;;;;;;6156397;23;20019;-87
2022/03/08 07:11:53;;;;;;;30.20;15.55;;;;;;;;;;6131079;23;20020;-88
2022/03/08 07:14:19;;;;;;;28.30;15.35;;;;;;;;;;6153696;23;20012;-87
2022/03/08 07:16:46;;;;;;;31.40;15.32;;;;;;;;;;6182036;23;20496;-87
2022/03/08 07:19:13;;;;;;;28.13;14.48;;;;;;;;;;6181210;23;20057;-88
2022/03/08 07:21:39;;;;;;;26.38;14.45;;;;;;;;;;6180348;23;20364;-87
2022/03/08 07:24:05;;;;;;;28.38;13.80;;;;;;;;;;6156135;23;20490;-87
2022/03/08 07:26:31;;;;;;;27.08;14.85;;;;;;;;;;6157369;23;20016;-87
2022/03/08 07:28:58;;;;;;;24.40;13.98;;;;;;;;;;6157324;23;20264;-87
2022/03/08 07:31:24;;;;;;;21.30;12.60;;;;;;;;;;6185755;23;20052;-88
2022/03/08 07:33:51;;;;;;;23.98;14.15;;;;;;;;;;6154107;23;20020;-87
2022/03/08 07:36:17;;;;;;;27.15;14.45;;;;;;;;;;6157127;23;20353;-88
2022/03/08 07:38:43;;;;;;;24.75;13.65;;;;;;;;;;6182779;23;20027;-87
2022/03/08 07:41:09;;;;;;;22.98;13.00;;;-0.40;99.90;;;;;;6155707;23;20517;-87
2022/03/08 07:43:35;;;;;;;32.63;14.25;;;0.60;99.90;;;;;;6130670;23;20105;-87
2022/03/08 07:46:01;;;;;;;24.52;12.98;;;;;;;;;;6156262;23;20082;-87
2022/03/08 07:48:27;;;;;;;23.33;13.07;;;0.70;99.90;;;;;;6180886;23;20239;-87
2022/03/08 07:50:53;;;;;;;22.55;13.20;;;0.90;99.90;;;;;;6106214;23;20095;-87
2022/03/08 07:53:18;;;;;;;23.77;12.80;;;1.00;99.90;;;;;;6106557;23;20020;-87
2022/03/08 07:55:44;;;;;;;19.58;13.02;;;1.10;99.90;;;;;;6105976;23;20074;-87
2022/03/08 07:58:12;;;;;;;21.52;12.90;;;1.20;99.90;;;;;;6104297;23;20012;-87
2022/03/08 08:00:39;;;;;;;21.83;13.70;;;1.30;99.90;;;;;;6106064;23;20446;-87
2022/03/08 08:03:05;;;;;;;22.33;12.57;;;1.40;99.90;;;;;;6104612;23;20024;-88
2022/03/08 08:05:33;;;;;;;23.80;12.82;;;1.50;99.90;;;;;;6154977;23;20300;-87
2022/03/08 08:08:00;;;;;;;21.88;12.90;;;1.60;99.90;;;;;;6131111;23;20020;-87
2022/03/08 08:10:26;;;;;;;24.08;13.23;;;1.70;99.90;;;;;;6153687;23;20016;-87
2022/03/08 08:12:51;;;;;;;24.40;12.27;;;1.90;99.90;;;;;;6106296;23;20420;-88
2022/03/08 08:15:17;;;;;;;19.77;11.80;;;1.90;99.90;;;;;;6105115;23;20091;-87
2022/03/08 08:17:44;;;;;;;23.42;12.82;;;;;;;;;;6130634;23;20013;-87
2022/03/08 08:20:10;;;;;;;21.23;12.77;;;;;;;;;;6153940;23;20012;-87
2022/03/08 08:22:36;;;;;;;21.27;12.52;;;;;;;;;;6178165;23;20020;-86
2022/03/08 08:25:03;;;;;;;25.65;13.43;;;2.00;99.90;;;;;;6178036;23;20306;-86
2022/03/08 08:27:29;;;;;;;21.25;13.52;;;;;;;;;;6129674;23;20024;-87
2022/03/08 08:29:56;;;;;;;20.42;12.25;;;;;;;;;;6153337;23;20381;-87
2022/03/08 08:32:22;;;;;;;20.95;13.15;;;;;;;;;;6178681;23;20027;-87
2022/03/08 08:34:48;;;;;;;21.55;12.45;;;;;;;;;;6153969;23;20009;-87
2022/03/08 08:37:14;;;;;;;21.90;12.32;;;;;;;;;;6153559;23;20016;-87
2022/03/08 08:39:40;;;;;;;22.33;12.85;;;;;;;;;;6154463;23;20012;-87
2022/03/08 08:42:07;;;;;;;17.40;12.05;;;;;;;;;;6178528;23;20103;-88
2022/03/08 08:44:33;;;;;;;21.38;13.32;;;;;;;;;;6177210;23;20035;-86
2022/03/08 08:46:59;;;;;;;18.65;12.85;;;2.40;99.90;;;;;;6128418;23;20024;-87
2022/03/08 08:49:25;;;;;;;20.67;12.57;;;3.60;99.90;;;;;;6129029;23;20020;-87
2022/03/08 08:51:52;;;;;;;17.75;11.75;;;;;;;;;;6153808;23;20020;-87
2022/03/08 08:54:18;;;;;;;23.10;13.10;;;;;;;;;;6152936;23;20019;-87
2022/03/08 08:56:44;;;;;;;17.60;11.77;;;3.70;99.90;;;;;;6179781;23;20392;-86
2022/03/08 08:59:10;;;;;;;18.35;11.05;;;;;;;;;;6129935;23;20017;-87
2022/03/08 09:01:36;;;;;;;17.02;11.32;;;4.10;99.90;;;;;;6153302;23;20398;-87
2022/03/08 09:04:02;;;;;;;16.95;10.90;;;4.40;99.90;;;;;;6153973;23;20017;-90
2022/03/08 09:06:28;;;;;;;16.17;10.75;;;4.50;99.90;;;;;;6156438;23;20016;-87
2022/03/08 09:08:56;;;;;;;16.20;10.60;;;4.70;99.90;;;;;;6130225;23;20016;-89
2022/03/08 09:11:22;;;;;;;20.17;11.75;;;4.90;99.90;;;;;;6129693;23;20023;-88
2022/03/08 09:13:48;;;;;;;16.77;11.10;;;4.90;99.90;;;;;;6132902;23;20032;-88
2022/03/08 09:16:17;;;;;;;15.73;11.18;;;5.10;99.90;;;;;;6130144;23;20012;-90
2022/03/08 09:18:43;;;;;;;16.92;10.85;;;5.20;99.90;;;;;;6132067;23;20354;-90
2022/03/08 09:21:12;;;;;;;20.30;11.88;;;5.30;99.90;;;;;;6152732;23;20013;-86
2022/03/08 09:23:39;;;;;;;15.25;10.35;;;5.40;99.90;;;;;;6129960;23;20118;-87
2022/03/08 09:26:05;;;;;;;16.15;10.95;;;5.50;99.90;;;;;;6128689;23;20345;-86
2022/03/08 09:28:32;;;;;;;17.45;10.85;;;5.60;99.90;;;;;;6103813;23;20008;-87
2022/03/08 09:31:01;;;;;;;19.63;10.32;;;5.70;99.90;;;;;;6178115;23;20017;-88
2022/03/08 09:33:28;;;;;;;13.00;8.80;;;5.90;99.90;;;;;;6178609;23;20528;-87
2022/03/08 09:35:54;;;;;;;17.55;10.65;;;;;;;;;;6132961;23;20032;-87
2022/03/08 09:38:23;;;;;;;17.00;10.32;;;6.00;99.60;;;;;;6177684;23;20069;-87
2022/03/08 09:40:51;;;;;;;16.08;10.07;;;6.20;96.40;;;;;;6129227;23;20074;-88
2022/03/08 09:43:17;;;;;;;14.43;9.73;;;6.40;95.30;;;;;;6171692;23;20023;-87
2022/03/08 09:45:43;;;;;;;16.02;9.57;;;6.40;93.90;;;;;;6168154;23;20016;-87
2022/03/08 09:48:09;;;;;;;15.32;9.63;;;6.50;94.30;;;;;;6187283;23;20070;-86
2022/03/08 09:50:35;;;;;;;13.13;9.65;;;6.60;92.90;;;;;;6184704;23;20086;-86
2022/03/08 09:53:02;;;;;;;16.10;9.35;;;6.70;92.30;;;;;;6184501;23;20521;-86
2022/03/08 09:55:28;;;;;;;13.52;9.20;;;6.80;91.60;;;;;;6158384;23;20039;-86
2022/03/08 09:57:54;;;;;;;11.07;8.15;;;6.90;90.40;;;;;;6134129;23;20453;-86
2022/03/08 10:00:23;;;;;;;15.70;9.38;;;6.90;90.20;;;;;;6135764;23;20380;-87
2022/03/08 10:02:52;;;;;;;18.55;8.90;;;7.00;88.20;;;;;;6134362;23;20012;-87
2022/03/08 10:05:27;;;;;;;14.05;8.65;;;7.10;87.60;;;;;;6183896;23;20012;-85
2022/03/08 10:08:10;;;;;;;12.25;7.82;;;7.10;86.20;;;;;;6183790;23;20023;-88
2022/03/08 10:10:48;;;;;;;12.25;8.40;;;7.20;86.60;;;;;;6184330;23;20020;-86
2022/03/08 10:13:14;;;;;;;13.80;8.35;;;7.40;85.50;;;;;;6183715;23;20063;-86
2022/03/08 10:15:41;;;;;;;11.35;7.72;;;7.50;84.40;;;;;;6158136;23;20091;-85
2022/03/08 10:18:07;;;;;;;10.20;7.93;;;7.50;82.60;;;;;;6135350;23;20091;-86
2022/03/08 10:20:34;;;;;;;14.68;7.50;;;7.60;81.20;;;;;;6158668;23;20456;-86
2022/03/08 10:23:01;;;;;;;11.35;8.00;;;7.70;80.30;;;;;;6158387;23;20020;-86
2022/03/08 10:25:30;;;;;;;14.05;8.05;;;7.80;80.00;;;;;;6159547;23;20052;-87
2022/03/08 10:27:56;;;;;;;11.27;6.95;;;7.90;78.10;;;;;;6182903;23;20594;-86
2022/03/08 10:30:42;;;;;;;12.02;7.10;;;7.90;77.50;;;;;;6183534;23;20020;-86
2022/03/08 10:33:08;;;;;;;10.35;6.85;;;8.00;74.20;;;;;;6184560;23;20012;-87
2022/03/08 10:35:40;;;;;;;9.57;7.25;;;8.00;73.40;;;;;;6186890;23;20066;-86
2022/03/08 10:38:08;;;;;;;9.13;6.97;;;8.10;72.70;;;;;;6186682;23;20058;-86
2022/03/08 10:40:36;;;;;;;9.27;6.50;;;8.10;72.40;;;;;;6185980;23;20015;-86
2022/03/08 10:43:22;;;;;;;11.00;7.07;;;8.10;71.80;;;;;;6185998;23;20044;-87
2022/03/08 10:45:50;;;;;;;11.32;7.90;;;8.20;72.20;;;;;;6185801;23;20012;-87
2022/03/08 10:48:18;;;;;;;10.02;7.10;;;8.30;71.60;;;;;;6185385;23;20024;-85
2022/03/08 10:50:46;;;;;;;11.32;6.72;;;8.40;71.40;;;;;;6137101;23;20016;-88
2022/03/08 10:53:14;;;;;;;12.00;7.45;;;8.40;70.40;;;;;;6159617;23;20032;-86
2022/03/08 10:55:48;;;;;;;12.32;8.02;;;8.50;69.90;;;;;;6161029;23;20020;-87
2022/03/08 10:58:16;;;;;;;9.63;7.13;;;8.60;70.60;;;;;;6187962;23;20009;-86
2022/03/08 11:00:50;;;;;;;9.05;6.28;;;8.70;70.90;;;;;;6161487;23;20292;-87
2022/03/08 11:03:20;;;;;;;9.63;6.45;;;8.80;69.80;;;;;;6185603;23;20356;-87
2022/03/08 11:05:50;;;;;;;8.32;5.88;;;8.90;70.10;;;;;;6184737;23;20019;-87
2022/03/08 11:08:17;;;;;;;8.32;5.63;;;9.00;68.20;;;;;;6185398;23;20583;-88
2022/03/08 11:10:44;;;;;;;11.35;6.32;;;9.10;66.80;;;;;;6160395;23;20020;-86
2022/03/08 11:13:11;;;;;;;10.98;6.50;;;9.10;66.90;;;;;;6159889;23;20015;-87
2022/03/08 11:15:39;;;;;;;10.35;6.68;;;9.10;67.70;;;;;;6159567;23;20433;-87
2022/03/08 11:18:08;;;;;;;11.90;6.40;;;9.20;67.80;;;;;;6183870;23;20016;-86
2022/03/08 11:20:35;;;;;;;7.97;5.47;;;9.30;67.50;;;;;;6159315;23;20019;-86
2022/03/08 11:23:02;;;;;;;12.95;6.53;;;9.30;67.10;;;;;;6184092;23;20015;-87
2022/03/08 11:25:30;;;;;;;8.05;6.10;;;9.40;66.50;;;;;;6160125;23;20333;-86
2022/03/08 11:27:56;;;;;;;9.55;6.07;;;9.50;67.10;;;;;;6183638;23;20031;-86
2022/03/08 11:30:26;;;;;;;8.18;5.72;;;9.60;66.80;;;;;;6184703;23;20661;-88
2022/03/08 11:33:16;;;;;;;7.82;6.28;;;9.70;66.60;;;;;;6185340;23;20449;-88
2022/03/08 11:35:59;;;;;;;7.18;5.50;;;9.70;64.20;;;;;;6187046;23;20020;-88
2022/03/08 11:38:25;;;;;;;10.40;5.95;;;9.80;64.40;;;;;;6182731;23;20012;-88
2022/03/08 11:40:53;;;;;;;8.65;5.55;;;9.80;64.30;;;;;;6159231;23;20355;-86
2022/03/08 11:43:20;;;;;;;8.15;5.38;;;9.80;64.10;;;;;;6182786;23;20020;-87
2022/03/08 11:45:48;;;;;;;6.75;5.30;;;9.90;64.30;;;;;;6160302;23;20015;-88
2022/03/08 11:48:20;;;;;;;8.20;5.30;;;10.00;63.80;;;;;;6136509;23;20028;-87
2022/03/08 11:50:46;;;;;;;6.47;5.50;;;10.10;63.80;;;;;;6185443;23;20109;-86
2022/03/08 11:53:13;;;;;;;9.75;5.95;;;10.20;63.90;;;;;;6186866;23;20012;-88
2022/03/08 11:55:45;;;;;;;6.35;5.05;;;10.30;63.60;;;;;;6186349;23;20016;-88
2022/03/08 11:58:20;;;;;;;9.80;5.75;;;10.40;62.80;;;;;;6182374;23;20337;-88
2022/03/08 12:00:57;;;;;;;8.95;5.95;;;10.40;61.50;;;;;;6186214;23;20385;-87
2022/03/08 12:03:23;;;;;;;7.90;5.75;;;10.50;61.40;;;;;;6184035;23;20218;-87
2022/03/08 12:06:09;;;;;;;6.93;5.10;;;10.60;61.90;;;;;;6183565;23;20008;-89
2022/03/08 12:08:35;;;;;;;6.90;5.07;;;10.90;60.90;;;;;;6186065;23;20349;-88
2022/03/08 12:11:26;;;;;;;6.68;5.07;;;11.10;60.60;;;;;;6186192;23;20388;-88
2022/03/08 12:14:01;;;;;;;5.78;4.80;;;11.30;60.90;;;;;;6160791;23;20016;-88
2022/03/08 12:16:27;;;;;;;7.93;5.38;;;11.50;59.30;;;;;;6182519;22;20008;-88
2022/03/08 12:18:55;;;;;;;10.13;5.32;;;11.60;59.10;;;;;;6159728;23;20054;-87
2022/03/08 12:21:21;;;;;;;7.53;5.07;;;11.60;58.90;;;;;;6183738;23;20016;-88
2022/03/08 12:23:51;;;;;;;6.32;5.22;;;11.60;59.40;;;;;;6184558;23;20011;-87
2022/03/08 12:26:45;;;;;;;6.55;5.13;;;11.60;58.50;;;;;;6183947;22;20102;-88
2022/03/08 12:29:22;;;;;;;5.68;5.05;;;11.60;56.90;;;;;;6185542;23;20019;-88
2022/03/08 12:31:57;;;;;;;9.07;5.32;;;11.50;57.30;;;;;;6185810;23;20091;-88
2022/03/08 12:34:43;;;;;;;7.63;5.28;;;11.40;56.80;;;;;;6184061;23;20024;-88
2022/03/08 12:37:21;;;;;;;6.15;5.03;;;11.40;57.00;;;;;;6184140;23;20008;-87
2022/03/08 12:39:47;;;;;;;6.32;4.90;;;11.60;57.90;;;;;;6184927;23;20008;-85
2022/03/08 12:42:23;;;;;;;7.57;5.47;;;11.90;58.20;;;;;;6208720;23;20091;-85
2022/03/08 12:44:54;;;;;;;10.90;5.88;;;12.40;57.60;;;;;;6186075;23;20011;-87
2022/03/08 12:47:20;;;;;;;12.50;5.40;;;12.80;57.60;;;;;;6184055;23;20467;-87
2022/03/08 12:49:48;;;;;;;7.65;5.13;;;13.10;56.70;;;;;;6158220;23;20028;-87
2022/03/08 12:52:15;;;;;;;5.88;4.85;;;13.20;55.60;;;;;;6183803;23;20681;-86
2022/03/08 12:54:43;;;;;;;7.57;5.18;;;12.90;54.80;;;;;;6183857;23;20020;-86
2022/03/08 12:57:15;;;;;;;6.78;5.20;;;12.60;54.30;;;;;;6184285;23;20012;-87